KAFF/AFF METAR and TAF weather

Enter ICAO airport designator
Station Type Date Time Source
KAFF METAR 2018/07/21 10:58 UTC NOAA

KAFF 211058Z AUTO 35008KT 10SM SCT170 BKN190 16/06 A3027 RMK AO2 SLP151 T01610060


Station Type Date Time Source
KAFF Decoded METAR 2018/07/21 10:58 UTC NOAA

Air Force Academy, CO, United States (KAFF) 38-58N 104-49W 1999M
Jul 21, 2018 - 06:58 AM EDT / 2018.07.21 1058 UTC
Wind: from the N (350 degrees) at 9 MPH (8 KT):0
Visibility: 10 mile(s):0
Sky conditions: mostly cloudy
Temperature: 61.0 F (16.1 C)
Dew Point: 42.8 F (6.0 C)
Relative Humidity: 51%
Pressure (altimeter): 30.27 in. Hg (1025 hPa)
ob: KAFF 211058Z AUTO 35008KT 10SM SCT170 BKN190 16/06 A3027 RMK AO2 SLP151 T01610060
cycle: 11

Station Type Date Time Source
KAFF TAF 2018/07/21 19:18 UTC NOAA

TAF TAF COR KAFF 210107Z 2019/2201 03012G22KT 9999 FEW100 QNH3020INS WND 360V110
TEMPO 2019/2020 36015G25KT
TEMPO 2020/2101 VRB30G40KT VCTS BKN120CB DRY MICROBURST CONDS EXIST
BECMG 2105/2106 35009KT 9999 FEW080 SCT130 QNH3024INS WND 320V080
BECMG 2114/2115 15012KT 9999 FEW080 SCT130 QNH3021INS
BECMG 2120/2121 21012G18KT 6000 -TSRA BKN080CB QNH3021INS TX34/2023Z TN16/2112Z LAST NO
AMDS AFT 2101 NEXT 2311


Example: see airport list